createdAt,value
2023-05-20T00:00:41.273Z,102003.66
2023-05-20T00:03:19.936Z,101996.66
2023-05-20T00:05:46.363Z,101996.66
2023-05-20T00:08:12.982Z,101995.78
2023-05-20T00:10:39.422Z,101992.34
2023-05-20T00:13:06.413Z,102000.94
2023-05-20T00:15:33.740Z,101980.63
2023-05-20T00:18:01.297Z,101984.34
2023-05-20T00:20:27.886Z,101981.78
2023-05-20T00:22:54.915Z,101984.06
2023-05-20T00:25:21.297Z,101984.66
2023-05-20T00:27:47.737Z,101985.50
2023-05-20T00:30:14.223Z,101986.38
2023-05-20T00:32:40.805Z,101990.69
2023-05-20T00:35:07.539Z,101979.22
2023-05-20T00:37:34.098Z,101985.06
2023-05-20T00:40:00.275Z,101986.25
2023-05-20T00:42:28.158Z,101979.78
2023-05-20T00:44:55.224Z,101977.22
2023-05-20T00:47:31.939Z,101977.63
2023-05-20T00:49:59.320Z,101982.63
2023-05-20T00:52:28.982Z,101986.97
2023-05-20T00:54:55.828Z,101980.06
2023-05-20T00:57:22.343Z,101979.50
2023-05-20T00:59:48.645Z,101978.06
2023-05-20T01:02:15.424Z,101968.31
2023-05-20T01:04:46.444Z,101979.34
2023-05-20T01:07:17.153Z,101973.03
2023-05-20T01:09:43.978Z,101961.72
2023-05-20T01:12:20.049Z,101969.72
2023-05-20T01:14:49.502Z,101967.44
2023-05-20T01:17:20.169Z,101970.16
2023-05-20T01:19:47.932Z,101971.00
2023-05-20T01:22:14.694Z,101969.28
2023-05-20T01:24:44.110Z,101976.28
2023-05-20T01:27:12.705Z,101966.56
2023-05-20T01:29:42.162Z,101970.56
2023-05-20T01:32:31.207Z,101971.97
2023-05-20T01:34:59.153Z,101967.97
2023-05-20T01:37:27.584Z,101967.97
2023-05-20T01:39:54.991Z,101964.41
2023-05-20T01:42:22.337Z,101960.09
2023-05-20T01:44:48.606Z,101961.22
2023-05-20T01:47:15.119Z,101967.66
2023-05-20T01:49:41.315Z,101966.84
2023-05-20T01:52:08.222Z,101959.94
2023-05-20T01:54:35.626Z,101962.13
2023-05-20T01:57:02.301Z,101964.84
2023-05-20T01:59:28.491Z,101958.25
2023-05-20T02:01:54.983Z,101959.94
2023-05-20T02:04:21.949Z,101950.50
2023-05-20T02:06:48.520Z,101956.50
2023-05-20T02:09:14.655Z,101951.19
2023-05-20T02:11:41.070Z,101944.44
2023-05-20T02:14:07.193Z,101944.44
2023-05-20T02:16:34.119Z,101948.31
2023-05-20T02:19:01.354Z,101943.19
2023-05-20T02:21:28.180Z,101947.91
2023-05-20T02:23:54.345Z,101948.63
2023-05-20T02:26:21.968Z,101945.91
2023-05-20T02:28:49.883Z,101948.19
2023-05-20T02:31:17.008Z,101955.50
2023-05-20T02:33:43.726Z,101955.69
2023-05-20T02:36:10.374Z,101953.97
2023-05-20T02:38:36.536Z,101958.72
2023-05-20T02:41:03.782Z,101957.84
2023-05-20T02:43:31.516Z,101958.72
2023-05-20T02:46:00.628Z,101967.19
2023-05-20T02:48:26.846Z,101965.88
2023-05-20T02:50:53.594Z,101970.75
2023-05-20T02:53:20.280Z,101968.31
2023-05-20T02:55:47.915Z,101963.47
2023-05-20T02:58:14.082Z,101970.63
2023-05-20T03:00:40.796Z,101973.78
2023-05-20T03:03:07.577Z,101973.34
2023-05-20T03:05:37.007Z,101966.03
2023-05-20T03:08:11.135Z,101974.66
2023-05-20T03:10:38.518Z,101971.34
2023-05-20T03:13:10.720Z,101982.81
2023-05-20T03:15:44.870Z,101973.78
2023-05-20T03:18:14.195Z,101970.34
2023-05-20T03:20:43.576Z,101985.41
2023-05-20T03:23:11.120Z,101977.75
2023-05-20T03:25:38.332Z,101986.53
2023-05-20T03:28:05.909Z,101988.25
2023-05-20T03:30:35.125Z,101990.13
2023-05-20T03:33:02.448Z,101991.00
2023-05-20T03:35:29.365Z,101986.25
2023-05-20T03:37:55.583Z,101987.81
2023-05-20T03:40:23.959Z,101986.97
2023-05-20T03:42:51.309Z,101988.38
2023-05-20T03:45:19.992Z,101995.72
2023-05-20T03:48:12.488Z,101997.88
2023-05-20T03:50:39.491Z,102005.47
2023-05-20T03:53:05.895Z,102001.03
2023-05-20T03:55:40.039Z,101999.56
2023-05-20T03:58:07.362Z,102001.59
2023-05-20T04:00:33.864Z,102005.59
2023-05-20T04:03:00.569Z,102001.88
2023-05-20T04:05:27.168Z,102003.59
2023-05-20T04:07:56.721Z,101999.00
2023-05-20T04:10:24.336Z,102003.72
2023-05-20T04:12:51.759Z,102013.00
2023-05-20T04:15:18.877Z,102013.16
2023-05-20T04:17:53.617Z,102010.59
2023-05-20T04:20:20.185Z,102001.44
2023-05-20T04:22:47.789Z,102005.47
2023-05-20T04:25:14.616Z,102005.63
2023-05-20T04:27:41.145Z,102008.63
2023-05-20T04:30:07.991Z,102003.03
2023-05-20T04:32:38.589Z,102008.50
2023-05-20T04:35:10.790Z,102007.50
2023-05-20T04:37:41.477Z,102004.16
2023-05-20T04:40:08.562Z,102001.28
2023-05-20T04:42:34.956Z,102004.78
2023-05-20T04:45:03.772Z,101998.16
2023-05-20T04:47:31.018Z,101997.56
2023-05-20T04:49:57.920Z,101998.16
2023-05-20T04:52:24.249Z,101995.16
2023-05-20T04:54:51.471Z,101997.88
2023-05-20T04:57:20.553Z,101991.53
2023-05-20T04:59:47.285Z,102003.88
2023-05-20T05:02:14.030Z,102008.06
2023-05-20T05:04:40.944Z,102009.63
2023-05-20T05:07:07.111Z,102002.31
2023-05-20T05:09:34.885Z,102011.94
2023-05-20T05:12:02.183Z,102004.19
2023-05-20T05:14:29.527Z,102006.06
2023-05-20T05:16:55.934Z,102006.22
2023-05-20T05:19:22.923Z,102007.94
2023-05-20T05:21:49.839Z,102008.38
2023-05-20T05:24:16.614Z,102003.66
2023-05-20T05:26:43.297Z,102005.09
2023-05-20T05:29:11.700Z,102007.38
2023-05-20T05:31:38.361Z,102021.16
2023-05-20T05:34:04.959Z,102014.16
2023-05-20T05:36:33.464Z,102008.25
2023-05-20T05:39:00.502Z,102005.69
2023-05-20T05:41:26.942Z,102010.16
2023-05-20T05:43:53.866Z,102009.41
2023-05-20T05:46:20.466Z,102008.97
2023-05-20T05:48:49.779Z,102011.41
2023-05-20T05:51:17.425Z,102012.16
2023-05-20T05:53:44.223Z,102013.44
2023-05-20T05:56:10.883Z,102020.91
2023-05-20T05:58:38.047Z,102019.75
2023-05-20T06:01:06.235Z,102013.44
2023-05-20T06:03:36.047Z,102004.25
2023-05-20T06:06:02.618Z,102009.72
2023-05-20T06:08:30.014Z,102011.72
2023-05-20T06:10:56.223Z,102006.84
2023-05-20T06:13:22.689Z,102010.44
2023-05-20T06:15:50.255Z,102010.06
2023-05-20T06:18:17.217Z,102018.38
2023-05-20T06:20:43.738Z,102018.91
2023-05-20T06:23:10.880Z,102017.50
2023-05-20T06:25:58.267Z,102010.59
2023-05-20T06:28:26.022Z,102016.63
2023-05-20T06:30:54.408Z,102012.72
2023-05-20T06:33:27.961Z,102020.06
2023-05-20T06:36:01.021Z,102026.81
2023-05-20T06:38:28.300Z,102020.91
2023-05-20T06:40:55.015Z,102021.63
2023-05-20T06:43:21.911Z,102015.06
2023-05-20T06:46:08.613Z,102013.78
2023-05-20T06:48:43.137Z,102001.69
2023-05-20T06:51:10.843Z,102003.25
2023-05-20T06:53:38.452Z,101995.31
2023-05-20T06:56:05.302Z,102001.75
2023-05-20T06:58:32.472Z,102004.63
2023-05-20T07:00:58.914Z,101999.28
2023-05-20T07:03:25.919Z,101997.84
2023-05-20T07:05:52.265Z,101985.06
2023-05-20T07:08:19.828Z,101988.38
2023-05-20T07:10:46.239Z,101984.78
2023-05-20T07:13:15.565Z,101981.06
2023-05-20T07:15:41.779Z,101985.41
2023-05-20T07:18:09.402Z,101974.81
2023-05-20T07:20:36.030Z,101969.91
2023-05-20T07:23:08.179Z,101974.53
2023-05-20T07:25:41.825Z,101964.16
2023-05-20T07:28:09.197Z,101969.25
2023-05-20T07:30:35.830Z,101968.94
2023-05-20T07:33:16.825Z,101961.66
2023-05-20T07:35:44.051Z,101965.97
2023-05-20T07:38:11.957Z,101962.66
2023-05-20T07:40:40.736Z,101966.47
2023-05-20T07:43:08.475Z,101974.19
2023-05-20T07:45:38.478Z,101968.25
2023-05-20T07:48:08.012Z,101973.13
2023-05-20T07:50:34.504Z,101973.03
2023-05-20T07:53:01.516Z,101957.56
2023-05-20T07:55:30.663Z,101958.34
2023-05-20T07:57:57.878Z,101952.50
2023-05-20T08:00:24.630Z,101949.75
2023-05-20T08:02:51.213Z,101949.00
2023-05-20T08:05:24.339Z,101950.81
2023-05-20T08:07:51.188Z,101955.22
2023-05-20T08:10:18.675Z,101962.16
2023-05-20T08:12:46.525Z,101955.56
2023-05-20T08:15:13.220Z,101945.53
2023-05-20T08:17:40.713Z,101952.94
2023-05-20T08:20:12.062Z,101958.53
2023-05-20T08:22:38.721Z,101957.56
2023-05-20T08:25:08.401Z,101955.56
2023-05-20T08:27:36.540Z,101948.44
2023-05-20T08:30:06.263Z,101943.81
2023-05-20T08:32:33.082Z,101950.41
2023-05-20T08:35:01.085Z,101952.84
2023-05-20T08:37:28.429Z,101949.94
2023-05-20T08:39:55.295Z,101950.16
2023-05-20T08:42:23.623Z,101952.50
2023-05-20T08:44:51.916Z,101948.75
2023-05-20T08:47:22.146Z,101945.13
2023-05-20T08:49:48.949Z,101948.00
2023-05-20T08:52:17.652Z,101946.22
2023-05-20T08:54:45.768Z,101944.25
2023-05-20T08:57:13.339Z,101940.56
2023-05-20T08:59:43.621Z,101948.19
2023-05-20T09:02:10.969Z,101945.53
2023-05-20T09:04:37.856Z,101950.75
2023-05-20T09:07:05.343Z,101946.56
2023-05-20T09:09:33.483Z,101944.22
2023-05-20T09:12:02.402Z,101951.47
2023-05-20T09:14:32.215Z,101943.13
2023-05-20T09:16:59.401Z,101948.47
2023-05-20T09:19:25.683Z,101952.84
2023-05-20T09:21:54.186Z,101947.03
2023-05-20T09:24:25.091Z,101948.00
2023-05-20T09:26:52.229Z,101954.94
2023-05-20T09:29:20.876Z,101946.44
2023-05-20T09:31:48.444Z,101946.69
2023-05-20T09:34:15.971Z,101941.06
2023-05-20T09:36:44.465Z,101946.72
2023-05-20T09:39:15.482Z,101946.78
2023-05-20T09:42:06.317Z,101948.88
2023-05-20T09:44:34.470Z,101942.94
2023-05-20T09:47:02.324Z,101938.97
2023-05-20T09:49:30.396Z,101930.09
2023-05-20T09:51:59.022Z,101939.78
2023-05-20T09:54:26.259Z,101937.25
2023-05-20T09:56:53.093Z,101939.69
2023-05-20T09:59:21.473Z,101938.94
2023-05-20T10:01:48.028Z,101937.59
2023-05-20T10:04:16.672Z,101927.56
2023-05-20T10:06:57.437Z,101929.56
2023-05-20T10:09:54.459Z,101929.47
2023-05-20T10:12:51.270Z,101912.84
2023-05-20T10:15:26.652Z,101916.09
2023-05-20T10:18:09.180Z,101924.88
2023-05-20T10:20:48.813Z,101915.78
2023-05-20T10:23:30.840Z,101920.41
2023-05-20T10:25:58.056Z,101917.34
2023-05-20T10:28:35.709Z,101913.00
2023-05-20T10:31:02.973Z,101913.84
2023-05-20T10:33:29.824Z,101921.97
2023-05-20T10:35:59.877Z,101913.91
2023-05-20T10:38:26.538Z,101913.56
2023-05-20T10:40:52.871Z,101908.75
2023-05-20T10:43:30.505Z,101905.50
2023-05-20T10:45:58.677Z,101903.94
2023-05-20T10:48:29.412Z,101905.75
2023-05-20T10:50:57.426Z,101902.63
2023-05-20T10:53:33.501Z,101907.41
2023-05-20T10:56:00.667Z,101908.97
2023-05-20T10:58:27.190Z,101903.53
2023-05-20T11:00:55.364Z,101902.06
2023-05-20T11:03:22.791Z,101908.78
2023-05-20T11:05:50.578Z,101895.28
2023-05-20T11:08:28.431Z,101895.19
2023-05-20T11:10:57.021Z,101886.22
2023-05-20T11:13:24.667Z,101885.69
2023-05-20T11:15:50.870Z,101876.31
2023-05-20T11:18:18.681Z,101877.50
2023-05-20T11:20:48.730Z,101871.50
2023-05-20T11:23:15.831Z,101859.34
2023-05-20T11:25:42.234Z,101860.16
2023-05-20T11:28:13.517Z,101859.28
2023-05-20T11:30:41.849Z,101865.41
2023-05-20T11:33:12.064Z,101870.06
2023-05-20T11:35:53.398Z,101862.13
2023-05-20T11:38:20.992Z,101850.56
2023-05-20T11:40:51.974Z,101854.13
2023-05-20T11:43:19.191Z,101852.19
2023-05-20T11:45:47.511Z,101850.66
2023-05-20T11:48:16.874Z,101842.72
2023-05-20T11:50:44.410Z,101844.34
2023-05-20T11:53:15.376Z,101855.31
2023-05-20T11:55:56.677Z,101853.97
2023-05-20T11:58:29.106Z,101858.84
2023-05-20T12:01:02.250Z,101852.97
2023-05-20T12:03:40.664Z,101859.50
2023-05-20T12:06:07.115Z,101858.06
2023-05-20T12:08:33.674Z,101848.66
2023-05-20T12:10:59.886Z,101844.06
2023-05-20T12:13:26.363Z,101838.97
2023-05-20T12:15:52.774Z,101835.53
2023-05-20T12:18:19.288Z,101840.19
2023-05-20T12:20:45.440Z,101823.66
2023-05-20T12:23:11.992Z,101823.66
2023-05-20T12:25:38.144Z,101824.50
2023-05-20T12:28:04.633Z,101837.31
2023-05-20T12:30:30.859Z,101821.03
2023-05-20T12:32:57.414Z,101820.53
2023-05-20T12:35:40.836Z,101824.38
2023-05-20T12:38:07.841Z,101815.50
2023-05-20T12:40:35.225Z,101806.66
2023-05-20T12:43:03.314Z,101816.44
2023-05-20T12:45:29.660Z,101812.53
2023-05-20T12:47:56.831Z,101809.31
2023-05-20T12:50:24.135Z,101812.59
2023-05-20T12:52:50.808Z,101803.78
2023-05-20T12:55:17.085Z,101795.41
2023-05-20T12:57:55.454Z,101802.69
2023-05-20T13:00:21.712Z,101795.97
2023-05-20T13:02:48.549Z,101795.72
2023-05-20T13:05:18.472Z,101801.44
2023-05-20T13:07:45.048Z,101806.13
2023-05-20T13:10:11.812Z,101806.25
2023-05-20T13:12:38.368Z,101804.66
2023-05-20T13:15:05.218Z,101807.97
2023-05-20T13:17:32.141Z,101795.13
2023-05-20T13:19:58.656Z,101795.06
2023-05-20T13:22:25.184Z,101790.28
2023-05-20T13:24:51.349Z,101780.88
2023-05-20T13:27:17.878Z,101780.75
2023-05-20T13:29:44.181Z,101771.91
2023-05-20T13:32:10.889Z,101775.19
2023-05-20T13:34:38.041Z,101773.75
2023-05-20T13:37:05.128Z,101759.16
2023-05-20T13:39:31.416Z,101767.81
2023-05-20T13:41:58.113Z,101768.22
2023-05-20T13:44:24.376Z,101763.22
2023-05-20T13:46:50.947Z,101761.19
2023-05-20T13:49:17.371Z,101756.97
2023-05-20T13:51:44.715Z,101754.28
2023-05-20T13:54:10.988Z,101751.34
2023-05-20T13:56:37.656Z,101742.09
2023-05-20T13:59:03.834Z,101742.75
2023-05-20T14:01:32.509Z,101739.19
2023-05-20T14:03:58.952Z,101740.28
2023-05-20T14:06:26.881Z,101741.78
2023-05-20T14:08:56.686Z,101753.13
2023-05-20T14:11:23.343Z,101742.19
2023-05-20T14:13:49.497Z,101738.53
2023-05-20T14:16:16.268Z,101745.16
2023-05-20T14:18:42.703Z,101731.22
2023-05-20T14:21:11.155Z,101732.34
2023-05-20T14:23:37.275Z,101726.84
2023-05-20T14:26:03.781Z,101720.44
2023-05-20T14:28:29.979Z,101715.84
2023-05-20T14:30:56.402Z,101721.06
2023-05-20T14:33:22.568Z,101718.22
2023-05-20T14:35:48.998Z,101715.41
2023-05-20T14:38:16.033Z,101703.00
2023-05-20T14:40:42.487Z,101717.50
2023-05-20T14:43:08.825Z,101712.69
2023-05-20T14:45:35.519Z,101710.94
2023-05-20T14:48:02.215Z,101713.63
2023-05-20T14:50:29.003Z,101709.13
2023-05-20T14:52:55.195Z,101705.13
2023-05-20T14:55:21.644Z,101707.28
2023-05-20T14:57:47.950Z,101702.88
2023-05-20T15:00:14.906Z,101697.53
2023-05-20T15:02:41.255Z,101694.41
2023-05-20T15:05:08.284Z,101678.25
2023-05-20T15:07:34.414Z,101684.88
2023-05-20T15:10:03.163Z,101682.22
2023-05-20T15:12:29.304Z,101679.94
2023-05-20T15:14:56.101Z,101674.53
2023-05-20T15:17:22.256Z,101680.44
2023-05-20T15:19:48.665Z,101669.13
2023-05-20T15:22:14.939Z,101675.75
2023-05-20T15:24:41.425Z,101671.03
2023-05-20T15:27:07.642Z,101661.16
2023-05-20T15:29:34.040Z,101660.56
2023-05-20T15:32:00.384Z,101659.97
2023-05-20T15:34:26.882Z,101659.97
2023-05-20T15:36:53.172Z,101650.56
2023-05-20T15:39:19.610Z,101642.75
2023-05-20T15:41:47.310Z,101644.81
2023-05-20T15:44:13.750Z,101639.75
2023-05-20T15:46:40.186Z,101637.38
2023-05-20T15:49:06.866Z,101640.34
2023-05-20T15:51:32.994Z,101636.25
2023-05-20T15:53:59.783Z,101637.59
2023-05-20T15:56:26.451Z,101643.97
2023-05-20T15:58:52.942Z,101640.41
2023-05-20T16:01:21.386Z,101631.06
2023-05-20T16:03:48.612Z,101626.31
2023-05-20T16:06:15.115Z,101629.88
2023-05-20T16:08:41.836Z,101624.50
2023-05-20T16:11:08.831Z,101627.28
2023-05-20T16:13:35.523Z,101624.31
2023-05-20T16:16:02.112Z,101625.00
2023-05-20T16:18:29.143Z,101627.00
2023-05-20T16:20:56.711Z,101621.69
2023-05-20T16:23:24.220Z,101626.03
2023-05-20T16:25:51.079Z,101626.66
2023-05-20T16:28:17.633Z,101630.56
2023-05-20T16:30:43.913Z,101620.34
2023-05-20T16:33:12.310Z,101612.00
2023-05-20T16:35:38.612Z,101613.78
2023-05-20T16:38:05.597Z,101609.50
2023-05-20T16:40:32.123Z,101609.81
2023-05-20T16:42:59.173Z,101606.22
2023-05-20T16:45:25.585Z,101607.06
2023-05-20T16:47:52.091Z,101610.75
2023-05-20T16:50:18.302Z,101604.19
2023-05-20T16:52:44.893Z,101602.28
2023-05-20T16:55:12.851Z,101607.59
2023-05-20T16:57:39.264Z,101601.50
2023-05-20T17:00:08.954Z,101606.41
2023-05-20T17:02:35.530Z,101595.63
2023-05-20T17:05:01.881Z,101599.84
2023-05-20T17:07:28.374Z,101596.69
2023-05-20T17:09:54.671Z,101589.16
2023-05-20T17:12:21.181Z,101592.97
2023-05-20T17:14:47.290Z,101595.03
2023-05-20T17:17:14.228Z,101592.53
2023-05-20T17:19:40.517Z,101594.22
2023-05-20T17:22:08.184Z,101591.06
2023-05-20T17:24:35.042Z,101593.81
2023-05-20T17:27:02.967Z,101591.06
2023-05-20T17:29:29.475Z,101582.81
2023-05-20T17:31:56.643Z,101585.97
2023-05-20T17:34:22.743Z,101584.84
2023-05-20T17:36:49.389Z,101583.31
2023-05-20T17:39:16.188Z,101581.88
2023-05-20T17:41:43.738Z,101579.06
2023-05-20T17:44:10.139Z,101588.56
2023-05-20T17:46:36.673Z,101582.53
2023-05-20T17:49:02.971Z,101580.69
2023-05-20T17:51:31.077Z,101573.22
2023-05-20T17:53:57.302Z,101582.47
2023-05-20T17:56:24.226Z,101579.53
2023-05-20T17:58:51.114Z,101581.69
2023-05-20T18:01:17.611Z,101579.66
2023-05-20T18:03:43.966Z,101567.00
2023-05-20T18:06:11.008Z,101563.78
2023-05-20T18:08:37.239Z,101570.94
2023-05-20T18:11:04.257Z,101557.09
2023-05-20T18:13:30.852Z,101552.53
2023-05-20T18:15:57.705Z,101550.56
2023-05-20T18:18:24.128Z,101549.25
2023-05-20T18:20:50.884Z,101555.34
2023-05-20T18:23:17.409Z,101543.16
2023-05-20T18:25:44.057Z,101540.75
2023-05-20T18:28:12.362Z,101546.84
2023-05-20T18:30:39.354Z,101538.31
2023-05-20T18:33:05.899Z,101547.16
2023-05-20T18:35:32.508Z,101542.41
2023-05-20T18:37:58.880Z,101535.31
2023-05-20T18:40:25.837Z,101547.94
2023-05-20T18:42:52.159Z,101547.00
2023-05-20T18:45:18.793Z,101547.28
2023-05-20T18:47:45.368Z,101546.81
2023-05-20T18:50:11.872Z,101552.91
2023-05-20T18:52:38.346Z,101554.63
2023-05-20T18:55:05.494Z,101561.06
2023-05-20T18:57:31.883Z,101551.00
2023-05-20T18:59:58.654Z,101560.19
2023-05-20T19:02:25.253Z,101542.34
2023-05-20T19:04:52.281Z,101551.34
2023-05-20T19:07:18.893Z,101554.38
2023-05-20T19:09:45.981Z,101551.16
2023-05-20T19:12:12.510Z,101555.31
2023-05-20T19:14:39.065Z,101553.63
2023-05-20T19:17:05.725Z,101545.75
2023-05-20T19:19:32.557Z,101547.53
2023-05-20T19:21:59.081Z,101539.84
2023-05-20T19:24:25.745Z,101550.34
2023-05-20T19:26:52.062Z,101550.91
2023-05-20T19:29:18.966Z,101554.88
2023-05-20T19:31:46.245Z,101546.16
2023-05-20T19:34:13.173Z,101550.69
2023-05-20T19:36:42.195Z,101548.00
2023-05-20T19:39:10.720Z,101555.75
2023-05-20T19:41:40.355Z,101554.78
2023-05-20T19:44:08.265Z,101553.75
2023-05-20T19:46:35.905Z,101555.19
2023-05-20T19:49:13.319Z,101547.13
2023-05-20T19:51:40.385Z,101558.66
2023-05-20T19:54:09.424Z,101555.44
2023-05-20T19:56:35.921Z,101559.28
2023-05-20T19:59:03.335Z,101547.69
2023-05-20T20:01:31.086Z,101560.72
2023-05-20T20:03:57.865Z,101553.69
2023-05-20T20:06:24.251Z,101547.91
2023-05-20T20:08:50.996Z,101546.00
2023-05-20T20:11:17.488Z,101552.91
2023-05-20T20:13:44.245Z,101548.44
2023-05-20T20:16:11.012Z,101555.13
2023-05-20T20:18:37.751Z,101551.72
2023-05-20T20:21:04.944Z,101547.81
2023-05-20T20:23:32.146Z,101550.91
2023-05-20T20:25:58.582Z,101555.72
2023-05-20T20:28:25.544Z,101549.06
2023-05-20T20:30:51.879Z,101556.47
2023-05-20T20:33:18.888Z,101546.56
2023-05-20T20:35:46.100Z,101554.59
2023-05-20T20:38:14.076Z,101559.59
2023-05-20T20:40:44.127Z,101552.56
2023-05-20T20:43:19.595Z,101553.59
2023-05-20T20:45:47.284Z,101554.81
2023-05-20T20:48:16.737Z,101561.88
2023-05-20T20:50:47.047Z,101560.16
2023-05-20T20:53:15.633Z,101558.97
2023-05-20T20:55:42.564Z,101560.16
2023-05-20T20:58:11.237Z,101553.31
2023-05-20T21:00:39.558Z,101557.44
2023-05-20T21:03:08.273Z,101564.97
2023-05-20T21:05:38.389Z,101563.59
2023-05-20T21:08:07.640Z,101556.78
2023-05-20T21:10:35.500Z,101560.53
2023-05-20T21:13:03.090Z,101551.13
2023-05-20T21:15:29.308Z,101555.22
2023-05-20T21:17:55.793Z,101552.84
2023-05-20T21:20:22.163Z,101548.41
2023-05-20T21:22:48.605Z,101547.38
2023-05-20T21:25:14.860Z,101542.41
2023-05-20T21:27:41.419Z,101545.66
2023-05-20T21:30:11.331Z,101543.78
2023-05-20T21:32:38.542Z,101538.66
2023-05-20T21:35:06.036Z,101539.50
2023-05-20T21:37:33.260Z,101541.41
2023-05-20T21:39:59.623Z,101541.22
2023-05-20T21:42:26.265Z,101540.38
2023-05-20T21:44:52.616Z,101537.66
2023-05-20T21:47:20.096Z,101535.75
2023-05-20T21:49:47.449Z,101537.66
2023-05-20T21:52:14.449Z,101544.16
2023-05-20T21:54:41.284Z,101536.13
2023-05-20T21:57:08.044Z,101541.09
2023-05-20T21:59:34.379Z,101544.84
2023-05-20T22:02:00.959Z,101547.25
2023-05-20T22:04:27.945Z,101544.34
2023-05-20T22:06:55.446Z,101543.13
2023-05-20T22:09:21.861Z,101541.25
2023-05-20T22:11:48.953Z,101540.22
2023-05-20T22:14:15.417Z,101534.94
2023-05-20T22:16:45.926Z,101537.66
2023-05-20T22:19:14.347Z,101538.66
2023-05-20T22:21:49.466Z,101544.00
2023-05-20T22:24:17.796Z,101539.38
2023-05-20T22:26:44.545Z,101529.63
2023-05-20T22:29:11.313Z,101534.25
2023-05-20T22:31:38.153Z,101529.28
2023-05-20T22:34:04.718Z,101534.41
2023-05-20T22:36:33.220Z,101533.19
2023-05-20T22:39:03.875Z,101535.28
2023-05-20T22:41:30.332Z,101532.19
2023-05-20T22:43:56.425Z,101530.16
2023-05-20T22:46:23.983Z,101531.50
2023-05-20T22:48:53.827Z,101531.69
2023-05-20T22:51:21.102Z,101520.41
2023-05-20T22:53:48.062Z,101518.84
2023-05-20T22:56:15.029Z,101532.03
2023-05-20T22:58:41.154Z,101528.44
2023-05-20T23:01:07.685Z,101522.59
2023-05-20T23:03:34.220Z,101522.78
2023-05-20T23:06:01.070Z,101522.59
2023-05-20T23:08:27.432Z,101517.63
2023-05-20T23:10:53.849Z,101523.63
2023-05-20T23:13:20.229Z,101515.41
2023-05-20T23:15:47.352Z,101511.66
2023-05-20T23:18:14.517Z,101511.66
2023-05-20T23:20:41.226Z,101508.22
2023-05-20T23:23:11.304Z,101508.91
2023-05-20T23:25:38.398Z,101508.22
2023-05-20T23:28:05.210Z,101502.06
2023-05-20T23:30:31.696Z,101515.44
2023-05-20T23:32:57.927Z,101509.63
2023-05-20T23:35:24.421Z,101513.56
2023-05-20T23:37:51.611Z,101517.16
2023-05-20T23:40:18.000Z,101503.63
2023-05-20T23:42:44.157Z,101513.19
2023-05-20T23:45:11.056Z,101510.47
2023-05-20T23:47:37.277Z,101509.63
2023-05-20T23:50:04.181Z,101507.72
2023-05-20T23:52:30.410Z,101507.91
2023-05-20T23:54:57.822Z,101506.19
2023-05-20T23:57:23.997Z,101510.63
2023-05-20T23:59:50.576Z,101513.38
